createdAt,value
2019-06-08T00:00:13.196Z,81.60
2019-06-08T00:02:41.286Z,81.60
2019-06-08T00:05:09.976Z,81.80
2019-06-08T00:07:38.437Z,81.40
2019-06-08T00:10:07.511Z,81.10
2019-06-08T00:12:35.964Z,81.10
2019-06-08T00:15:06.042Z,81.00
2019-06-08T00:17:38.805Z,81.00
2019-06-08T00:20:06.587Z,80.60
2019-06-08T00:22:35.045Z,81.10
2019-06-08T00:25:03.666Z,80.20
2019-06-08T00:27:32.209Z,79.90
2019-06-08T00:30:00.640Z,80.10
2019-06-08T00:32:29.096Z,80.00
2019-06-08T00:34:57.576Z,80.20
2019-06-08T00:37:26.077Z,80.00
2019-06-08T00:39:54.512Z,79.90
2019-06-08T00:42:25.513Z,80.10
2019-06-08T00:44:54.148Z,80.00
2019-06-08T00:47:22.725Z,79.80
2019-06-08T00:49:51.160Z,80.00
2019-06-08T00:52:21.039Z,80.10
2019-06-08T00:54:49.649Z,80.20
2019-06-08T00:57:18.079Z,80.20
2019-06-08T00:59:46.537Z,80.10
2019-06-08T01:02:14.972Z,80.10
2019-06-08T01:04:43.423Z,80.00
2019-06-08T01:07:11.854Z,79.80
2019-06-08T01:09:40.362Z,79.80
2019-06-08T01:12:08.805Z,79.50
2019-06-08T01:14:37.252Z,79.20
2019-06-08T01:17:05.746Z,79.60
2019-06-08T01:19:34.259Z,79.50
2019-06-08T01:22:02.810Z,79.60
2019-06-08T01:24:31.330Z,79.50
2019-06-08T01:26:59.782Z,79.10
2019-06-08T01:29:28.442Z,79.30
2019-06-08T01:31:56.987Z,78.80
2019-06-08T01:34:26.917Z,79.20
2019-06-08T01:36:55.560Z,78.90
2019-06-08T01:39:25.032Z,78.60
2019-06-08T01:41:53.635Z,78.80
2019-06-08T01:44:22.159Z,78.80
2019-06-08T01:46:50.610Z,78.90
2019-06-08T01:49:19.038Z,78.80
2019-06-08T01:51:47.480Z,78.60
2019-06-08T01:54:15.936Z,78.70
2019-06-08T01:56:44.677Z,78.50
2019-06-08T01:59:13.369Z,78.30
2019-06-08T02:01:41.811Z,77.70
2019-06-08T02:04:10.337Z,77.80
2019-06-08T02:06:38.779Z,78.10
2019-06-08T02:09:08.331Z,77.30
2019-06-08T02:11:36.857Z,77.00
2019-06-08T02:14:05.774Z,77.00
2019-06-08T02:16:44.141Z,77.20
2019-06-08T02:19:12.640Z,76.30
2019-06-08T02:21:41.093Z,75.60
2019-06-08T02:24:09.544Z,75.70
2019-06-08T02:26:37.989Z,75.40
2019-06-08T02:29:08.404Z,75.30
2019-06-08T02:31:37.709Z,75.30
2019-06-08T02:34:06.491Z,75.30
2019-06-08T02:36:37.882Z,75.30
2019-06-08T02:39:08.139Z,74.20
2019-06-08T02:41:40.139Z,74.50
2019-06-08T02:44:08.767Z,74.60
2019-06-08T02:46:38.167Z,73.90
2019-06-08T02:49:07.440Z,74.60
2019-06-08T02:51:37.902Z,74.10
2019-06-08T02:54:06.559Z,74.00
2019-06-08T02:56:36.849Z,73.60
2019-06-08T02:59:05.936Z,73.60
2019-06-08T03:01:36.636Z,73.40
2019-06-08T03:04:06.417Z,73.40
2019-06-08T03:06:39.452Z,73.40
2019-06-08T03:09:08.401Z,73.40
2019-06-08T03:11:37.242Z,73.30
2019-06-08T03:14:07.125Z,73.20
2019-06-08T03:16:36.416Z,73.00
2019-06-08T03:19:21.155Z,73.00
2019-06-08T03:21:36.864Z,72.80
2019-06-08T03:24:06.228Z,72.50
2019-06-08T03:26:38.789Z,72.60
2019-06-08T03:29:06.550Z,72.00
2019-06-08T03:31:42.369Z,72.90
2019-06-08T03:34:05.232Z,71.80
2019-06-08T03:36:40.328Z,71.70
2019-06-08T03:39:08.655Z,71.40
2019-06-08T03:41:40.297Z,71.20
2019-06-08T03:44:08.956Z,71.40
2019-06-08T03:46:38.834Z,70.90
2019-06-08T03:49:07.594Z,70.90
2019-06-08T03:51:40.260Z,71.00
2019-06-08T03:54:06.220Z,70.70
2019-06-08T03:56:35.795Z,70.90
2019-06-08T03:59:05.306Z,70.80
2019-06-08T04:01:33.736Z,70.60
2019-06-08T04:04:02.203Z,70.30
2019-06-08T04:06:30.698Z,70.40
2019-06-08T04:08:59.143Z,70.10
2019-06-08T04:11:27.582Z,70.40
2019-06-08T04:13:56.044Z,70.60
2019-06-08T04:16:24.562Z,70.60
2019-06-08T04:18:52.994Z,70.60
2019-06-08T04:21:21.530Z,70.70
2019-06-08T04:23:52.454Z,70.20
2019-06-08T04:26:20.899Z,70.40
2019-06-08T04:28:49.718Z,70.30
2019-06-08T04:31:18.310Z,70.20
2019-06-08T04:33:46.920Z,69.90
2019-06-08T04:36:15.685Z,69.20
2019-06-08T04:38:45.704Z,69.80
2019-06-08T04:41:14.296Z,69.10
2019-06-08T04:43:43.365Z,69.50
2019-06-08T04:46:12.916Z,69.00
2019-06-08T04:48:43.138Z,68.70
2019-06-08T04:51:11.607Z,68.70
2019-06-08T04:53:40.908Z,68.80
2019-06-08T04:56:10.086Z,68.60
2019-06-08T04:58:39.817Z,68.60
2019-06-08T05:01:08.839Z,68.20
2019-06-08T05:03:39.086Z,67.60
2019-06-08T05:06:07.624Z,68.10
2019-06-08T05:08:36.125Z,68.00
2019-06-08T05:11:04.653Z,67.70
2019-06-08T05:13:33.103Z,67.50
2019-06-08T05:16:01.624Z,67.40
2019-06-08T05:18:30.070Z,67.00
2019-06-08T05:20:58.526Z,67.20
2019-06-08T05:23:26.959Z,67.40
2019-06-08T05:25:55.414Z,67.00
2019-06-08T05:28:23.838Z,67.30
2019-06-08T05:30:52.971Z,67.50
2019-06-08T05:33:21.413Z,66.70
2019-06-08T05:35:49.873Z,67.00
2019-06-08T05:38:18.376Z,66.90
2019-06-08T05:40:47.704Z,67.60
2019-06-08T05:43:16.233Z,67.00
2019-06-08T05:45:45.713Z,67.20
2019-06-08T05:48:14.364Z,67.10
2019-06-08T05:50:58.840Z,67.10
2019-06-08T05:53:13.729Z,67.00
2019-06-08T05:55:46.244Z,66.90
2019-06-08T05:58:14.700Z,67.10
2019-06-08T06:00:44.218Z,67.10
2019-06-08T06:03:12.919Z,66.90
2019-06-08T06:05:42.465Z,66.80
2019-06-08T06:08:18.791Z,67.00
2019-06-08T06:10:42.780Z,67.30
2019-06-08T06:13:11.437Z,67.40
2019-06-08T06:15:40.976Z,67.30
2019-06-08T06:18:09.779Z,67.30
2019-06-08T06:20:38.230Z,67.60
2019-06-08T06:23:06.744Z,67.30
2019-06-08T06:25:35.197Z,67.70
2019-06-08T06:28:06.221Z,67.80
2019-06-08T06:30:35.239Z,67.30
2019-06-08T06:33:03.739Z,67.70
2019-06-08T06:35:32.224Z,68.10
2019-06-08T06:38:00.746Z,67.50
2019-06-08T06:40:29.180Z,68.40
2019-06-08T06:42:57.630Z,69.00
2019-06-08T06:45:26.656Z,68.40
2019-06-08T06:47:56.713Z,68.90
2019-06-08T06:50:25.247Z,69.20
2019-06-08T06:52:55.341Z,69.70
2019-06-08T06:55:25.479Z,70.40
2019-06-08T06:57:54.142Z,70.40
2019-06-08T07:00:30.809Z,71.10
2019-06-08T07:03:00.472Z,71.40
2019-06-08T07:05:29.260Z,71.30
2019-06-08T07:07:57.880Z,71.60
2019-06-08T07:10:26.338Z,71.00
2019-06-08T07:12:55.624Z,70.30
2019-06-08T07:15:28.716Z,70.30
2019-06-08T07:17:58.602Z,69.50
2019-06-08T07:20:27.344Z,69.70
2019-06-08T07:22:55.783Z,68.90
2019-06-08T07:25:24.219Z,68.40
2019-06-08T07:27:52.696Z,68.60
2019-06-08T07:30:22.993Z,68.50
2019-06-08T07:32:52.911Z,68.30
2019-06-08T07:35:21.606Z,68.50
2019-06-08T07:37:51.918Z,68.40
2019-06-08T07:40:20.902Z,68.60
2019-06-08T07:42:50.797Z,68.80
2019-06-08T07:45:40.512Z,68.70
2019-06-08T07:48:08.973Z,68.60
2019-06-08T07:50:37.411Z,68.40
2019-06-08T07:53:05.860Z,68.80
2019-06-08T07:55:34.393Z,68.60
2019-06-08T07:58:02.909Z,69.00
2019-06-08T08:00:31.583Z,70.00
2019-06-08T08:03:00.177Z,69.50
2019-06-08T08:05:30.171Z,69.60
2019-06-08T08:07:59.010Z,69.80
2019-06-08T08:10:27.550Z,70.00
2019-06-08T08:12:56.823Z,70.30
2019-06-08T08:15:25.422Z,70.00
2019-06-08T08:17:55.511Z,70.20
2019-06-08T08:20:24.098Z,70.40
2019-06-08T08:22:57.600Z,70.50
2019-06-08T08:25:24.258Z,70.80
2019-06-08T08:27:53.466Z,71.10
2019-06-08T08:30:24.723Z,71.10
2019-06-08T08:32:54.582Z,71.40
2019-06-08T08:35:23.356Z,71.60
2019-06-08T08:37:55.968Z,72.00
2019-06-08T08:40:23.116Z,72.60
2019-06-08T08:42:52.364Z,73.00
2019-06-08T08:45:22.198Z,73.20
2019-06-08T08:47:51.263Z,73.80
2019-06-08T08:50:21.142Z,74.20
2019-06-08T08:52:50.716Z,74.80
2019-06-08T08:55:20.554Z,75.00
2019-06-08T08:57:51.597Z,75.50
2019-06-08T09:00:21.035Z,75.80
2019-06-08T09:03:05.855Z,76.10
2019-06-08T09:05:19.639Z,76.20
2019-06-08T09:07:48.370Z,76.10
2019-06-08T09:10:18.381Z,75.40
2019-06-08T09:12:48.544Z,75.70
2019-06-08T09:15:19.223Z,75.80
2019-06-08T09:17:48.335Z,75.70
2019-06-08T09:20:19.245Z,75.70
2019-06-08T09:22:56.720Z,75.90
2019-06-08T09:25:18.245Z,76.40
2019-06-08T09:27:48.156Z,76.60
2019-06-08T09:30:18.320Z,76.80
2019-06-08T09:32:47.787Z,76.60
2019-06-08T09:35:18.698Z,76.40
2019-06-08T09:37:48.616Z,76.40
2019-06-08T09:40:17.053Z,76.40
2019-06-08T09:42:45.575Z,76.10
2019-06-08T09:45:14.087Z,76.20
2019-06-08T09:47:42.516Z,76.40
2019-06-08T09:50:11.405Z,76.40
2019-06-08T09:52:41.371Z,76.40
2019-06-08T09:55:10.830Z,76.40
2019-06-08T09:57:39.487Z,76.20
2019-06-08T10:00:17.716Z,75.80
2019-06-08T10:02:43.133Z,75.50
2019-06-08T10:05:11.785Z,75.40
2019-06-08T10:07:40.215Z,75.20
2019-06-08T10:10:10.385Z,75.40
2019-06-08T10:12:40.944Z,75.60
2019-06-08T10:15:09.795Z,75.40
2019-06-08T10:17:39.442Z,76.40
2019-06-08T10:20:10.082Z,77.10
2019-06-08T10:22:38.352Z,76.70
2019-06-08T10:25:10.762Z,76.50
2019-06-08T10:27:38.620Z,76.20
2019-06-08T10:30:10.052Z,76.30
2019-06-08T10:32:38.907Z,75.90
2019-06-08T10:35:10.319Z,75.80
2019-06-08T10:37:38.434Z,76.10
2019-06-08T10:40:07.799Z,77.00
2019-06-08T10:42:39.794Z,76.20
2019-06-08T10:45:14.269Z,76.20
2019-06-08T10:47:39.289Z,76.30
2019-06-08T10:50:14.711Z,76.30
2019-06-08T10:52:39.603Z,76.60
2019-06-08T10:55:10.496Z,76.80
2019-06-08T10:57:38.640Z,77.10
2019-06-08T11:00:20.166Z,76.50
2019-06-08T11:02:42.753Z,77.10
2019-06-08T11:05:13.953Z,77.30
2019-06-08T11:07:41.614Z,77.40
2019-06-08T11:10:12.333Z,77.70
2019-06-08T11:12:40.846Z,77.80
2019-06-08T11:15:11.713Z,77.20
2019-06-08T11:17:39.526Z,77.20
2019-06-08T11:20:11.824Z,76.80
2019-06-08T11:22:38.761Z,76.00
2019-06-08T11:25:15.219Z,76.00
2019-06-08T11:27:38.766Z,75.90
2019-06-08T11:30:17.392Z,75.80
2019-06-08T11:32:38.513Z,75.40
2019-06-08T11:35:10.653Z,75.50
2019-06-08T11:37:40.766Z,75.10
2019-06-08T11:40:12.251Z,74.80
2019-06-08T11:42:39.588Z,74.40
2019-06-08T11:45:11.044Z,73.50
2019-06-08T11:47:39.255Z,73.30
2019-06-08T11:50:11.700Z,73.60
2019-06-08T11:52:38.429Z,72.80
2019-06-08T11:55:11.127Z,72.30
2019-06-08T11:57:40.510Z,72.90
2019-06-08T12:00:23.491Z,74.00
2019-06-08T12:02:41.288Z,74.80
2019-06-08T12:05:12.403Z,75.60
2019-06-08T12:07:40.282Z,76.10
2019-06-08T12:10:10.909Z,76.30
2019-06-08T12:12:42.334Z,75.60
2019-06-08T12:15:13.214Z,76.00
2019-06-08T12:17:41.103Z,76.10
2019-06-08T12:20:13.965Z,76.00
2019-06-08T12:22:40.263Z,75.70
2019-06-08T12:25:10.208Z,75.70
2019-06-08T12:27:40.116Z,74.20
2019-06-08T12:30:17.327Z,74.20
2019-06-08T12:32:39.238Z,74.80
2019-06-08T12:35:09.718Z,76.20
2019-06-08T12:37:38.686Z,77.30
2019-06-08T12:40:09.815Z,77.70
2019-06-08T12:42:38.153Z,78.60
2019-06-08T12:45:07.390Z,79.30
2019-06-08T12:47:37.914Z,80.20
2019-06-08T12:50:08.934Z,79.50
2019-06-08T12:52:39.209Z,80.20
2019-06-08T12:55:12.538Z,79.40
2019-06-08T12:57:37.766Z,79.10
2019-06-08T13:00:09.749Z,79.70
2019-06-08T13:02:38.518Z,78.40
2019-06-08T13:05:11.564Z,77.00
2019-06-08T13:07:38.594Z,75.30
2019-06-08T13:10:09.523Z,74.50
2019-06-08T13:12:40.726Z,73.70
2019-06-08T13:15:11.632Z,73.70
2019-06-08T13:17:41.274Z,73.00
2019-06-08T13:20:21.445Z,73.30
2019-06-08T13:22:48.305Z,74.50
2019-06-08T13:25:34.202Z,74.10
2019-06-08T13:27:48.023Z,73.50
2019-06-08T13:30:22.596Z,73.80
2019-06-08T13:32:48.280Z,74.20
2019-06-08T13:35:20.891Z,74.30
2019-06-08T13:37:53.557Z,73.60
2019-06-08T13:40:23.705Z,72.10
2019-06-08T13:42:52.396Z,71.20
2019-06-08T13:45:23.342Z,71.30
2019-06-08T13:47:51.579Z,68.20
2019-06-08T13:50:21.979Z,68.20
2019-06-08T13:52:50.331Z,68.10
2019-06-08T13:55:36.668Z,66.00
2019-06-08T13:57:51.861Z,65.50
2019-06-08T14:00:24.807Z,65.50
2019-06-08T14:02:53.391Z,67.50
2019-06-08T14:05:30.813Z,69.40
2019-06-08T14:08:00.476Z,70.10
2019-06-08T14:10:38.531Z,71.40
2019-06-08T14:13:07.787Z,71.70
2019-06-08T14:15:37.990Z,72.90
2019-06-08T14:18:08.763Z,72.70
2019-06-08T14:20:38.573Z,73.00
2019-06-08T14:23:09.243Z,73.90
2019-06-08T14:25:49.769Z,72.40
2019-06-08T14:28:08.619Z,71.30
2019-06-08T14:30:37.723Z,69.20
2019-06-08T14:33:08.243Z,69.00
2019-06-08T14:35:36.574Z,68.70
2019-06-08T14:38:05.115Z,69.20
2019-06-08T14:40:33.594Z,69.20
2019-06-08T14:43:02.123Z,71.20
2019-06-08T14:45:31.022Z,70.00
2019-06-08T14:47:59.671Z,69.50
2019-06-08T14:50:30.652Z,68.50
2019-06-08T14:52:59.652Z,68.40
2019-06-08T14:55:32.116Z,65.70
2019-06-08T14:57:58.334Z,66.40
2019-06-08T15:00:27.687Z,66.10
2019-06-08T15:02:59.031Z,64.90
2019-06-08T15:05:28.897Z,64.20
2019-06-08T15:07:58.133Z,63.60
2019-06-08T15:10:28.483Z,63.20
2019-06-08T15:12:57.766Z,63.60
2019-06-08T15:15:30.235Z,63.30
2019-06-08T15:17:58.171Z,61.80
2019-06-08T15:20:28.315Z,61.80
2019-06-08T15:22:57.930Z,61.50
2019-06-08T15:25:29.985Z,61.50
2019-06-08T15:28:01.273Z,61.00
2019-06-08T15:30:31.045Z,62.20
2019-06-08T15:32:58.940Z,61.20
2019-06-08T15:35:27.724Z,61.60
2019-06-08T15:37:58.411Z,60.40
2019-06-08T15:40:27.684Z,60.70
2019-06-08T15:42:58.368Z,61.30
2019-06-08T15:45:29.421Z,61.40
2019-06-08T15:47:58.490Z,61.90
2019-06-08T15:50:28.424Z,64.10
2019-06-08T15:52:59.770Z,65.70
2019-06-08T15:55:29.879Z,69.10
2019-06-08T15:57:58.460Z,69.60
2019-06-08T16:00:28.356Z,71.10
2019-06-08T16:02:58.481Z,71.50
2019-06-08T16:05:27.720Z,72.50
2019-06-08T16:07:57.764Z,72.70
2019-06-08T16:10:28.048Z,72.80
2019-06-08T16:12:56.704Z,73.00
2019-06-08T16:15:25.155Z,71.70
2019-06-08T16:17:53.629Z,71.80
2019-06-08T16:20:22.325Z,71.70
2019-06-08T16:22:51.836Z,72.30
2019-06-08T16:25:20.298Z,74.90
2019-06-08T16:27:48.741Z,77.00
2019-06-08T16:30:18.801Z,78.70
2019-06-08T16:32:47.249Z,78.50
2019-06-08T16:35:15.780Z,78.30
2019-06-08T16:37:45.530Z,77.70
2019-06-08T16:40:14.224Z,78.00
2019-06-08T16:42:45.307Z,78.00
2019-06-08T16:45:14.696Z,78.60
2019-06-08T16:47:45.510Z,77.90
2019-06-08T16:50:24.211Z,77.10
2019-06-08T16:52:44.272Z,76.90
2019-06-08T16:55:12.775Z,76.90
2019-06-08T16:57:41.395Z,77.10
2019-06-08T17:00:30.820Z,77.50
2019-06-08T17:02:41.119Z,77.40
2019-06-08T17:05:09.650Z,76.40
2019-06-08T17:07:40.000Z,75.90
2019-06-08T17:10:09.978Z,76.10
2019-06-08T17:12:39.130Z,75.80
2019-06-08T17:15:08.656Z,74.90
2019-06-08T17:17:40.406Z,73.70
2019-06-08T17:20:12.007Z,72.70
2019-06-08T17:22:44.519Z,72.60
2019-06-08T17:25:13.380Z,72.30
2019-06-08T17:27:41.824Z,72.00
2019-06-08T17:30:11.513Z,69.50
2019-06-08T17:32:40.558Z,68.80
2019-06-08T17:35:09.620Z,68.20
2019-06-08T17:37:40.456Z,67.20
2019-06-08T17:40:09.234Z,67.40
2019-06-08T17:42:37.748Z,65.80
2019-06-08T17:45:11.418Z,65.80
2019-06-08T17:47:40.671Z,64.70
2019-06-08T17:50:09.505Z,64.80
2019-06-08T17:52:40.886Z,64.10
2019-06-08T17:55:10.455Z,63.30
2019-06-08T17:57:48.583Z,61.40
2019-06-08T18:00:12.174Z,60.70
2019-06-08T18:02:43.590Z,61.30
2019-06-08T18:05:12.146Z,59.70
2019-06-08T18:07:42.289Z,61.70
2019-06-08T18:10:12.382Z,61.40
2019-06-08T18:12:44.555Z,62.00
2019-06-08T18:15:12.368Z,62.10
2019-06-08T18:17:43.767Z,61.70
2019-06-08T18:20:18.796Z,62.00
2019-06-08T18:22:50.156Z,60.60
2019-06-08T18:25:22.762Z,60.70
2019-06-08T18:28:06.492Z,60.80
2019-06-08T18:30:30.109Z,61.00
2019-06-08T18:33:01.955Z,60.90
2019-06-08T18:35:31.755Z,60.20
2019-06-08T18:38:04.101Z,60.50
2019-06-08T18:40:42.029Z,60.90
2019-06-08T18:43:17.080Z,60.70
2019-06-08T18:45:49.645Z,60.90
2019-06-08T18:48:21.626Z,60.60
2019-06-08T18:50:54.070Z,60.80
2019-06-08T18:53:27.168Z,60.90
2019-06-08T18:55:57.989Z,61.00
2019-06-08T18:58:29.158Z,61.30
2019-06-08T19:01:01.350Z,61.60
2019-06-08T19:03:33.697Z,61.40
2019-06-08T19:06:09.869Z,61.80
2019-06-08T19:08:43.208Z,62.00
2019-06-08T19:11:13.902Z,61.90
2019-06-08T19:13:47.518Z,61.90
2019-06-08T19:16:20.289Z,62.30
2019-06-08T19:18:52.783Z,62.90
2019-06-08T19:21:24.074Z,62.60
2019-06-08T19:23:53.960Z,62.90
2019-06-08T19:26:28.231Z,63.00
2019-06-08T19:28:59.583Z,63.40
2019-06-08T19:31:32.541Z,63.70
2019-06-08T19:34:07.131Z,63.60
2019-06-08T19:36:39.982Z,63.30
2019-06-08T19:39:12.136Z,63.60
2019-06-08T19:41:57.247Z,63.30
2019-06-08T19:44:30.660Z,63.30
2019-06-08T19:47:01.204Z,63.10
2019-06-08T19:49:32.158Z,63.30
2019-06-08T19:52:02.813Z,63.10
2019-06-08T19:54:34.865Z,63.00
2019-06-08T19:57:07.815Z,63.20
2019-06-08T19:59:41.148Z,63.10
2019-06-08T20:02:11.605Z,63.00
2019-06-08T20:04:44.785Z,62.40
2019-06-08T20:07:17.528Z,62.70
2019-06-08T20:09:49.301Z,61.80
2019-06-08T20:12:21.914Z,62.00
2019-06-08T20:14:58.294Z,62.00
2019-06-08T20:17:30.303Z,62.00
2019-06-08T20:20:02.332Z,62.00
2019-06-08T20:22:32.783Z,62.20
2019-06-08T20:25:09.900Z,62.40
2019-06-08T20:27:38.989Z,62.60
2019-06-08T20:30:12.322Z,62.80
2019-06-08T20:32:42.280Z,62.80
2019-06-08T20:35:14.669Z,63.30
2019-06-08T20:37:45.739Z,63.40
2019-06-08T20:40:18.031Z,63.50
2019-06-08T20:42:52.627Z,63.50
2019-06-08T20:45:18.902Z,63.70
2019-06-08T20:47:50.538Z,63.60
2019-06-08T20:50:19.060Z,63.90
2019-06-08T20:52:49.679Z,64.00
2019-06-08T20:55:17.925Z,64.20
2019-06-08T20:57:48.154Z,64.10
2019-06-08T21:00:16.956Z,64.40
2019-06-08T21:02:46.417Z,64.60
2019-06-08T21:05:18.086Z,64.90
2019-06-08T21:07:48.832Z,65.00
2019-06-08T21:10:17.444Z,65.10
2019-06-08T21:12:49.597Z,65.10
2019-06-08T21:15:17.797Z,65.40
2019-06-08T21:17:49.141Z,65.40
2019-06-08T21:20:17.731Z,65.70
2019-06-08T21:22:50.018Z,65.60
2019-06-08T21:25:17.596Z,65.80
2019-06-08T21:27:48.493Z,66.00
2019-06-08T21:30:21.534Z,66.10
2019-06-08T21:32:50.319Z,66.50
2019-06-08T21:35:18.393Z,66.80
2019-06-08T21:37:50.709Z,67.10
2019-06-08T21:40:23.589Z,67.20
2019-06-08T21:42:53.890Z,67.40
2019-06-08T21:45:22.226Z,67.70
2019-06-08T21:47:53.396Z,67.70
2019-06-08T21:50:22.123Z,68.00
2019-06-08T21:52:51.971Z,67.90
2019-06-08T21:55:20.737Z,68.10
2019-06-08T21:57:51.143Z,68.20
2019-06-08T22:00:38.489Z,68.40
2019-06-08T22:02:51.847Z,68.70
2019-06-08T22:05:21.900Z,68.80
2019-06-08T22:07:50.403Z,68.90
2019-06-08T22:10:18.860Z,69.10
2019-06-08T22:12:48.293Z,69.20
2019-06-08T22:15:18.281Z,69.30
2019-06-08T22:17:47.625Z,69.40
2019-06-08T22:20:18.609Z,69.60
2019-06-08T22:22:51.837Z,69.90
2019-06-08T22:25:20.401Z,70.00
2019-06-08T22:27:48.956Z,70.00
2019-06-08T22:30:35.209Z,70.00
2019-06-08T22:32:48.729Z,70.00
2019-06-08T22:35:17.724Z,70.00
2019-06-08T22:37:48.408Z,70.10
2019-06-08T22:40:19.325Z,70.00
2019-06-08T22:42:48.205Z,70.20
2019-06-08T22:45:18.431Z,70.20
2019-06-08T22:47:47.793Z,70.30
2019-06-08T22:50:18.544Z,70.30
2019-06-08T22:52:47.709Z,71.00
2019-06-08T22:55:18.584Z,70.50
2019-06-08T22:57:47.941Z,70.40
2019-06-08T23:00:20.409Z,70.50
2019-06-08T23:02:48.600Z,70.60
2019-06-08T23:05:18.609Z,70.70
2019-06-08T23:07:48.857Z,70.70
2019-06-08T23:10:17.626Z,70.60
2019-06-08T23:12:47.175Z,70.80
2019-06-08T23:15:18.159Z,70.90
2019-06-08T23:17:47.989Z,70.90
2019-06-08T23:20:18.483Z,71.10
2019-06-08T23:22:47.483Z,71.40
2019-06-08T23:25:18.201Z,71.40
2019-06-08T23:27:48.401Z,71.50
2019-06-08T23:30:18.438Z,71.60
2019-06-08T23:32:48.008Z,71.60
2019-06-08T23:35:18.191Z,71.60
2019-06-08T23:37:47.848Z,72.40
2019-06-08T23:40:17.903Z,71.60
2019-06-08T23:42:47.689Z,71.60
2019-06-08T23:45:17.903Z,71.60
2019-06-08T23:47:48.099Z,71.60
2019-06-08T23:50:17.815Z,71.60
2019-06-08T23:52:47.704Z,71.70
2019-06-08T23:55:19.167Z,71.80
2019-06-08T23:57:47.611Z,71.90
